sensor_id;sensor_type;location;lat;lon;timestamp;temperature;humidity
14901;DHT22;7542;49.078;9.194;2022-09-30T00:00:05;13.40;72.30
14901;DHT22;7542;49.078;9.194;2022-09-30T00:01:08;13.40;72.20
14901;DHT22;7542;49.078;9.194;2022-09-30T00:02:10;13.70;72.50
14901;DHT22;7542;49.078;9.194;2022-09-30T00:03:13;14.90;73.20
14901;DHT22;7542;49.078;9.194;2022-09-30T00:04:17;13.40;72.20
14901;DHT22;7542;49.078;9.194;2022-09-30T00:05:21;13.30;72.20
14901;DHT22;7542;49.078;9.194;2022-09-30T00:06:24;17.70;75.10
14901;DHT22;7542;49.078;9.194;2022-09-30T00:07:27;13.40;72.50
14901;DHT22;7542;49.078;9.194;2022-09-30T00:08:30;14.50;73.50
14901;DHT22;7542;49.078;9.194;2022-09-30T00:09:32;13.30;72.90
14901;DHT22;7542;49.078;9.194;2022-09-30T00:10:34;13.40;72.90
14901;DHT22;7542;49.078;9.194;2022-09-30T00:11:35;14.50;73.50
14901;DHT22;7542;49.078;9.194;2022-09-30T00:12:39;13.40;72.80
14901;DHT22;7542;49.078;9.194;2022-09-30T00:13:43;13.30;72.90
14901;DHT22;7542;49.078;9.194;2022-09-30T00:14:46;12.80;72.50
14901;DHT22;7542;49.078;9.194;2022-09-30T00:15:48;13.30;72.80
14901;DHT22;7542;49.078;9.194;2022-09-30T00:16:50;13.30;72.70
14901;DHT22;7542;49.078;9.194;2022-09-30T00:17:51;13.30;72.70
14901;DHT22;7542;49.078;9.194;2022-09-30T00:18:54;13.40;72.60
14901;DHT22;7542;49.078;9.194;2022-09-30T00:19:57;13.30;72.60
14901;DHT22;7542;49.078;9.194;2022-09-30T00:21:00;13.70;72.80
14901;DHT22;7542;49.078;9.194;2022-09-30T00:22:02;13.20;72.50
14901;DHT22;7542;49.078;9.194;2022-09-30T00:23:04;13.30;72.60
14901;DHT22;7542;49.078;9.194;2022-09-30T00:24:06;13.30;72.50
14901;DHT22;7542;49.078;9.194;2022-09-30T00:25:08;13.30;72.40
14901;DHT22;7542;49.078;9.194;2022-09-30T00:26:12;13.10;72.20
14901;DHT22;7542;49.078;9.194;2022-09-30T00:27:16;15.80;73.70
14901;DHT22;7542;49.078;9.194;2022-09-30T00:28:18;13.20;72.30
14901;DHT22;7542;49.078;9.194;2022-09-30T00:29:20;13.10;72.20
14901;DHT22;7542;49.078;9.194;2022-09-30T00:30:22;13.30;72.30
14901;DHT22;7542;49.078;9.194;2022-09-30T00:31:26;15.80;73.70
14901;DHT22;7542;49.078;9.194;2022-09-30T00:32:30;14.00;72.70
14901;DHT22;7542;49.078;9.194;2022-09-30T00:33:33;13.20;72.30
14901;DHT22;7542;49.078;9.194;2022-09-30T00:34:35;13.20;72.30
14901;DHT22;7542;49.078;9.194;2022-09-30T00:35:37;16.50;74.30
14901;DHT22;7542;49.078;9.194;2022-09-30T00:36:44;13.10;72.40
14901;DHT22;7542;49.078;9.194;2022-09-30T00:37:47;13.10;72.60
14901;DHT22;7542;49.078;9.194;2022-09-30T00:38:49;13.10;72.70
14901;DHT22;7542;49.078;9.194;2022-09-30T00:39:50;16.00;74.50
14901;DHT22;7542;49.078;9.194;2022-09-30T00:40:53;13.10;72.90
14901;DHT22;7542;49.078;9.194;2022-09-30T00:41:58;13.10;72.80
14901;DHT22;7542;49.078;9.194;2022-09-30T00:43:01;15.80;74.40
14901;DHT22;7542;49.078;9.194;2022-09-30T00:45:56;13.10;72.60
14901;DHT22;7542;49.078;9.194;2022-09-30T00:47:00;13.10;72.90
14901;DHT22;7542;49.078;9.194;2022-09-30T00:48:09;13.00;72.80
14901;DHT22;7542;49.078;9.194;2022-09-30T00:49:20;13.10;73.00
14901;DHT22;7542;49.078;9.194;2022-09-30T00:50:45;13.10;73.00
14901;DHT22;7542;49.078;9.194;2022-09-30T00:51:54;13.00;72.80
14901;DHT22;7542;49.078;9.194;2022-09-30T00:54:34;13.10;72.90
14901;DHT22;7542;49.078;9.194;2022-09-30T00:57:03;13.10;72.70
14901;DHT22;7542;49.078;9.194;2022-09-30T00:58:11;13.00;72.60
14901;DHT22;7542;49.078;9.194;2022-09-30T00:59:23;16.20;74.50
14901;DHT22;7542;49.078;9.194;2022-09-30T01:00:27;12.90;72.70
14901;DHT22;7542;49.078;9.194;2022-09-30T01:01:30;13.00;72.70
14901;DHT22;7542;49.078;9.194;2022-09-30T01:02:32;13.00;72.60
14901;DHT22;7542;49.078;9.194;2022-09-30T01:03:41;13.00;72.50
14901;DHT22;7542;49.078;9.194;2022-09-30T01:04:45;12.90;72.30
14901;DHT22;7542;49.078;9.194;2022-09-30T01:05:49;12.90;72.40
14901;DHT22;7542;49.078;9.194;2022-09-30T01:06:52;15.30;74.00
14901;DHT22;7542;49.078;9.194;2022-09-30T01:07:56;12.90;72.60
14901;DHT22;7542;49.078;9.194;2022-09-30T01:09:01;13.00;72.50
14901;DHT22;7542;49.078;9.194;2022-09-30T01:10:04;12.90;72.80
14901;DHT22;7542;49.078;9.194;2022-09-30T01:11:06;12.90;72.80
14901;DHT22;7542;49.078;9.194;2022-09-30T01:12:12;12.90;72.80
14901;DHT22;7542;49.078;9.194;2022-09-30T01:13:17;12.80;72.60
14901;DHT22;7542;49.078;9.194;2022-09-30T01:14:24;12.80;72.50
14901;DHT22;7542;49.078;9.194;2022-09-30T01:15:52;16.00;74.60
14901;DHT22;7542;49.078;9.194;2022-09-30T01:17:23;12.80;72.70
14901;DHT22;7542;49.078;9.194;2022-09-30T01:28:53;14.90;74.70
14901;DHT22;7542;49.078;9.194;2022-09-30T01:31:29;12.80;73.20
14901;DHT22;7542;49.078;9.194;2022-09-30T01:35:52;12.70;73.80
14901;DHT22;7542;49.078;9.194;2022-09-30T01:40:30;12.70;73.80
14901;DHT22;7542;49.078;9.194;2022-09-30T01:41:52;16.40;76.00
14901;DHT22;7542;49.078;9.194;2022-09-30T01:43:13;12.70;73.90
14901;DHT22;7542;49.078;9.194;2022-09-30T01:45:48;12.60;73.90
14901;DHT22;7542;49.078;9.194;2022-09-30T01:47:16;12.60;74.10
14901;DHT22;7542;49.078;9.194;2022-09-30T01:48:59;12.60;74.20
14901;DHT22;7542;49.078;9.194;2022-09-30T01:50:18;12.60;74.50
14901;DHT22;7542;49.078;9.194;2022-09-30T01:51:42;12.40;74.90
14901;DHT22;7542;49.078;9.194;2022-09-30T01:53:05;12.40;75.10
14901;DHT22;7542;49.078;9.194;2022-09-30T01:55:35;12.50;75.10
14901;DHT22;7542;49.078;9.194;2022-09-30T01:56:51;12.40;74.70
14901;DHT22;7542;49.078;9.194;2022-09-30T01:58:13;12.50;74.50
14901;DHT22;7542;49.078;9.194;2022-09-30T01:59:38;12.50;74.70
14901;DHT22;7542;49.078;9.194;2022-09-30T02:00:49;12.40;74.60
14901;DHT22;7542;49.078;9.194;2022-09-30T02:02:12;15.90;76.80
14901;DHT22;7542;49.078;9.194;2022-09-30T02:03:23;12.50;74.80
14901;DHT22;7542;49.078;9.194;2022-09-30T02:04:38;12.50;74.70
14901;DHT22;7542;49.078;9.194;2022-09-30T02:05:59;12.40;74.50
14901;DHT22;7542;49.078;9.194;2022-09-30T02:07:14;18.40;78.00
14901;DHT22;7542;49.078;9.194;2022-09-30T02:08:34;12.50;74.50
14901;DHT22;7542;49.078;9.194;2022-09-30T02:09:55;12.50;74.40
14901;DHT22;7542;49.078;9.194;2022-09-30T02:11:07;12.50;74.40
14901;DHT22;7542;49.078;9.194;2022-09-30T02:12:19;12.50;74.50
14901;DHT22;7542;49.078;9.194;2022-09-30T02:13:31;12.50;74.50
14901;DHT22;7542;49.078;9.194;2022-09-30T02:16:42;12.50;74.50
14901;DHT22;7542;49.078;9.194;2022-09-30T02:18:30;12.40;74.50
14901;DHT22;7542;49.078;9.194;2022-09-30T02:19:49;12.40;74.50
14901;DHT22;7542;49.078;9.194;2022-09-30T02:21:01;12.40;74.60
14901;DHT22;7542;49.078;9.194;2022-09-30T02:22:20;14.80;76.00
14901;DHT22;7542;49.078;9.194;2022-09-30T02:23:35;12.40;74.50
14901;DHT22;7542;49.078;9.194;2022-09-30T02:24:43;12.30;74.60
14901;DHT22;7542;49.078;9.194;2022-09-30T02:26:03;12.30;74.60
14901;DHT22;7542;49.078;9.194;2022-09-30T02:27:32;12.40;74.70
14901;DHT22;7542;49.078;9.194;2022-09-30T02:28:50;13.40;75.20
14901;DHT22;7542;49.078;9.194;2022-09-30T02:29:59;12.40;74.50
14901;DHT22;7542;49.078;9.194;2022-09-30T02:31:06;12.40;74.30
14901;DHT22;7542;49.078;9.194;2022-09-30T02:32:18;12.60;74.40
14901;DHT22;7542;49.078;9.194;2022-09-30T02:33:37;12.40;74.30
14901;DHT22;7542;49.078;9.194;2022-09-30T02:35:04;12.40;74.30
14901;DHT22;7542;49.078;9.194;2022-09-30T02:36:40;12.40;74.40
14901;DHT22;7542;49.078;9.194;2022-09-30T02:37:51;12.40;74.40
14901;DHT22;7542;49.078;9.194;2022-09-30T02:39:09;12.40;74.40
14901;DHT22;7542;49.078;9.194;2022-09-30T02:40:39;12.40;74.30
14901;DHT22;7542;49.078;9.194;2022-09-30T02:41:52;12.40;74.40
14901;DHT22;7542;49.078;9.194;2022-09-30T02:43:01;12.40;74.50
14901;DHT22;7542;49.078;9.194;2022-09-30T02:44:05;12.40;74.60
14901;DHT22;7542;49.078;9.194;2022-09-30T02:45:09;15.60;76.50
14901;DHT22;7542;49.078;9.194;2022-09-30T02:46:29;12.40;74.70
14901;DHT22;7542;49.078;9.194;2022-09-30T02:49:17;12.30;74.90
14901;DHT22;7542;49.078;9.194;2022-09-30T02:50:43;12.30;75.00
14901;DHT22;7542;49.078;9.194;2022-09-30T02:54:35;12.20;74.60
14901;DHT22;7542;49.078;9.194;2022-09-30T02:56:29;12.20;74.90
14901;DHT22;7542;49.078;9.194;2022-09-30T02:57:54;12.20;74.80
14901;DHT22;7542;49.078;9.194;2022-09-30T02:59:11;16.10;77.00
14901;DHT22;7542;49.078;9.194;2022-09-30T03:00:15;15.10;76.30
14901;DHT22;7542;49.078;9.194;2022-09-30T03:01:17;12.20;74.50
14901;DHT22;7542;49.078;9.194;2022-09-30T03:02:19;12.20;74.30
14901;DHT22;7542;49.078;9.194;2022-09-30T03:03:31;12.30;74.40
14901;DHT22;7542;49.078;9.194;2022-09-30T03:04:39;12.30;74.50
14901;DHT22;7542;49.078;9.194;2022-09-30T03:05:43;12.20;74.50
14901;DHT22;7542;49.078;9.194;2022-09-30T03:06:45;12.20;74.60
14901;DHT22;7542;49.078;9.194;2022-09-30T03:07:47;12.20;74.70
14901;DHT22;7542;49.078;9.194;2022-09-30T03:08:50;12.10;74.70
14901;DHT22;7542;49.078;9.194;2022-09-30T03:09:57;13.40;75.40
14901;DHT22;7542;49.078;9.194;2022-09-30T03:11:02;12.10;74.70
14901;DHT22;7542;49.078;9.194;2022-09-30T03:12:33;12.10;74.70
14901;DHT22;7542;49.078;9.194;2022-09-30T03:20:17;12.20;74.40
14901;DHT22;7542;49.078;9.194;2022-09-30T03:29:31;11.90;74.00
14901;DHT22;7542;49.078;9.194;2022-09-30T03:30:47;12.10;73.70
14901;DHT22;7542;49.078;9.194;2022-09-30T03:35:19;12.00;73.90
14901;DHT22;7542;49.078;9.194;2022-09-30T03:36:14;12.00;74.40
14901;DHT22;7542;49.078;9.194;2022-09-30T03:38:51;12.00;74.20
14901;DHT22;7542;49.078;9.194;2022-09-30T03:40:08;12.00;74.20
14901;DHT22;7542;49.078;9.194;2022-09-30T03:41:26;12.10;74.40
14901;DHT22;7542;49.078;9.194;2022-09-30T03:42:43;12.00;74.20
14901;DHT22;7542;49.078;9.194;2022-09-30T03:44:29;12.00;74.30
14901;DHT22;7542;49.078;9.194;2022-09-30T03:45:51;11.90;74.50
14901;DHT22;7542;49.078;9.194;2022-09-30T03:47:07;10.80;73.80
14901;DHT22;7542;49.078;9.194;2022-09-30T03:48:12;12.10;74.50
14901;DHT22;7542;49.078;9.194;2022-09-30T03:49:20;12.00;74.20
14901;DHT22;7542;49.078;9.194;2022-09-30T03:50:26;12.00;74.10
14901;DHT22;7542;49.078;9.194;2022-09-30T03:51:30;12.00;74.10
14901;DHT22;7542;49.078;9.194;2022-09-30T03:52:36;13.70;75.10
14901;DHT22;7542;49.078;9.194;2022-09-30T03:53:42;11.90;74.10
14901;DHT22;7542;49.078;9.194;2022-09-30T03:54:50;12.00;73.90
14901;DHT22;7542;49.078;9.194;2022-09-30T03:55:54;12.00;74.50
14901;DHT22;7542;49.078;9.194;2022-09-30T03:56:56;11.90;75.00
14901;DHT22;7542;49.078;9.194;2022-09-30T03:57:58;14.00;76.30
14901;DHT22;7542;49.078;9.194;2022-09-30T03:59:00;14.70;77.00
14901;DHT22;7542;49.078;9.194;2022-09-30T04:00:04;11.80;75.00
14901;DHT22;7542;49.078;9.194;2022-09-30T04:01:07;11.80;74.90
14901;DHT22;7542;49.078;9.194;2022-09-30T04:02:22;11.80;74.60
14901;DHT22;7542;49.078;9.194;2022-09-30T04:03:25;11.80;74.50
14901;DHT22;7542;49.078;9.194;2022-09-30T04:04:28;11.80;74.20
14901;DHT22;7542;49.078;9.194;2022-09-30T04:05:29;11.80;74.10
14901;DHT22;7542;49.078;9.194;2022-09-30T04:06:31;11.80;74.20
14901;DHT22;7542;49.078;9.194;2022-09-30T04:07:33;11.80;74.00
14901;DHT22;7542;49.078;9.194;2022-09-30T04:08:36;11.80;74.20
14901;DHT22;7542;49.078;9.194;2022-09-30T04:09:38;11.80;74.30
14901;DHT22;7542;49.078;9.194;2022-09-30T04:10:41;11.80;74.50
14901;DHT22;7542;49.078;9.194;2022-09-30T04:11:46;11.80;74.50
14901;DHT22;7542;49.078;9.194;2022-09-30T04:12:48;12.90;75.10
14901;DHT22;7542;49.078;9.194;2022-09-30T04:13:54;11.90;74.50
14901;DHT22;7542;49.078;9.194;2022-09-30T04:14:56;11.80;74.10
14901;DHT22;7542;49.078;9.194;2022-09-30T04:15:58;14.90;76.10
14901;DHT22;7542;49.078;9.194;2022-09-30T04:17:00;12.50;74.60
14901;DHT22;7542;49.078;9.194;2022-09-30T04:18:03;11.80;74.30
14901;DHT22;7542;49.078;9.194;2022-09-30T04:19:06;11.80;74.10
14901;DHT22;7542;49.078;9.194;2022-09-30T04:20:07;11.80;74.20
14901;DHT22;7542;49.078;9.194;2022-09-30T04:21:12;11.80;74.30
14901;DHT22;7542;49.078;9.194;2022-09-30T04:22:14;14.20;75.90
14901;DHT22;7542;49.078;9.194;2022-09-30T04:23:16;11.80;74.40
14901;DHT22;7542;49.078;9.194;2022-09-30T04:24:22;11.80;74.30
14901;DHT22;7542;49.078;9.194;2022-09-30T04:25:26;15.10;76.30
14901;DHT22;7542;49.078;9.194;2022-09-30T04:26:28;12.10;74.50
14901;DHT22;7542;49.078;9.194;2022-09-30T04:27:30;13.60;75.20
14901;DHT22;7542;49.078;9.194;2022-09-30T04:28:32;11.70;74.10
14901;DHT22;7542;49.078;9.194;2022-09-30T04:29:34;12.80;74.60
14901;DHT22;7542;49.078;9.194;2022-09-30T04:30:37;12.50;74.50
14901;DHT22;7542;49.078;9.194;2022-09-30T04:31:39;11.90;74.20
14901;DHT22;7542;49.078;9.194;2022-09-30T04:32:42;11.90;74.10
14901;DHT22;7542;49.078;9.194;2022-09-30T04:33:45;11.90;73.90
14901;DHT22;7542;49.078;9.194;2022-09-30T04:34:47;11.90;73.90
14901;DHT22;7542;49.078;9.194;2022-09-30T04:35:53;16.10;76.40
14901;DHT22;7542;49.078;9.194;2022-09-30T04:36:58;14.50;75.30
14901;DHT22;7542;49.078;9.194;2022-09-30T04:37:59;11.80;73.80
14901;DHT22;7542;49.078;9.194;2022-09-30T04:39:03;11.80;73.90
14901;DHT22;7542;49.078;9.194;2022-09-30T04:40:05;11.80;73.90
14901;DHT22;7542;49.078;9.194;2022-09-30T04:41:13;11.80;73.90
14901;DHT22;7542;49.078;9.194;2022-09-30T04:42:16;11.90;74.00
14901;DHT22;7542;49.078;9.194;2022-09-30T04:43:19;15.10;76.10
14901;DHT22;7542;49.078;9.194;2022-09-30T04:44:23;11.80;74.10
14901;DHT22;7542;49.078;9.194;2022-09-30T04:45:25;11.90;74.10
14901;DHT22;7542;49.078;9.194;2022-09-30T04:46:27;11.80;73.90
14901;DHT22;7542;49.078;9.194;2022-09-30T04:47:29;11.80;74.00
14901;DHT22;7542;49.078;9.194;2022-09-30T04:48:31;11.80;74.10
14901;DHT22;7542;49.078;9.194;2022-09-30T04:49:33;13.10;74.90
14901;DHT22;7542;49.078;9.194;2022-09-30T04:50:35;11.80;74.10
14901;DHT22;7542;49.078;9.194;2022-09-30T04:51:37;11.80;74.30
14901;DHT22;7542;49.078;9.194;2022-09-30T04:52:41;11.80;74.40
14901;DHT22;7542;49.078;9.194;2022-09-30T04:53:44;11.70;74.30
14901;DHT22;7542;49.078;9.194;2022-09-30T04:54:47;11.80;74.20
14901;DHT22;7542;49.078;9.194;2022-09-30T04:55:48;11.70;74.10
14901;DHT22;7542;49.078;9.194;2022-09-30T04:56:51;11.70;74.10
14901;DHT22;7542;49.078;9.194;2022-09-30T04:57:53;11.80;74.00
14901;DHT22;7542;49.078;9.194;2022-09-30T04:58:54;14.50;75.90
14901;DHT22;7542;49.078;9.194;2022-09-30T04:59:56;11.80;74.20
14901;DHT22;7542;49.078;9.194;2022-09-30T05:01:05;11.70;74.30
14901;DHT22;7542;49.078;9.194;2022-09-30T05:02:09;11.70;74.30
14901;DHT22;7542;49.078;9.194;2022-09-30T05:03:13;11.70;74.40
14901;DHT22;7542;49.078;9.194;2022-09-30T05:04:15;11.70;74.40
14901;DHT22;7542;49.078;9.194;2022-09-30T05:05:17;11.70;74.50
14901;DHT22;7542;49.078;9.194;2022-09-30T05:06:19;11.70;74.50
14901;DHT22;7542;49.078;9.194;2022-09-30T05:07:21;11.70;74.70
14901;DHT22;7542;49.078;9.194;2022-09-30T05:08:23;14.90;76.60
14901;DHT22;7542;49.078;9.194;2022-09-30T05:09:25;11.60;74.40
14901;DHT22;7542;49.078;9.194;2022-09-30T05:10:27;14.70;76.50
14901;DHT22;7542;49.078;9.194;2022-09-30T05:11:28;15.30;76.90
14901;DHT22;7542;49.078;9.194;2022-09-30T05:12:30;11.70;74.90
14901;DHT22;7542;49.078;9.194;2022-09-30T05:13:35;11.70;74.90
14901;DHT22;7542;49.078;9.194;2022-09-30T05:14:38;11.70;75.10
14901;DHT22;7542;49.078;9.194;2022-09-30T05:15:40;11.70;75.20
14901;DHT22;7542;49.078;9.194;2022-09-30T05:16:42;14.20;76.70
14901;DHT22;7542;49.078;9.194;2022-09-30T05:17:43;15.10;77.30
14901;DHT22;7542;49.078;9.194;2022-09-30T05:18:45;11.70;75.20
14901;DHT22;7542;49.078;9.194;2022-09-30T05:19:47;11.80;75.40
14901;DHT22;7542;49.078;9.194;2022-09-30T05:20:49;13.90;76.40
14901;DHT22;7542;49.078;9.194;2022-09-30T05:21:52;12.60;75.50
14901;DHT22;7542;49.078;9.194;2022-09-30T05:22:55;11.70;75.20
14901;DHT22;7542;49.078;9.194;2022-09-30T05:23:57;11.80;75.40
14901;DHT22;7542;49.078;9.194;2022-09-30T05:24:58;11.70;75.50
14901;DHT22;7542;49.078;9.194;2022-09-30T05:26:01;11.70;75.60
14901;DHT22;7542;49.078;9.194;2022-09-30T05:27:03;11.70;75.80
14901;DHT22;7542;49.078;9.194;2022-09-30T05:28:05;11.70;76.30
14901;DHT22;7542;49.078;9.194;2022-09-30T05:29:09;11.70;76.60
14901;DHT22;7542;49.078;9.194;2022-09-30T05:30:11;12.90;77.50
14901;DHT22;7542;49.078;9.194;2022-09-30T05:31:12;11.70;77.10
14901;DHT22;7542;49.078;9.194;2022-09-30T05:32:14;11.70;77.20
14901;DHT22;7542;49.078;9.194;2022-09-30T05:33:16;11.80;77.10
14901;DHT22;7542;49.078;9.194;2022-09-30T05:34:18;11.70;77.00
14901;DHT22;7542;49.078;9.194;2022-09-30T05:35:21;11.70;76.80
14901;DHT22;7542;49.078;9.194;2022-09-30T05:36:23;11.70;76.70
14901;DHT22;7542;49.078;9.194;2022-09-30T05:37:25;11.70;76.20
14901;DHT22;7542;49.078;9.194;2022-09-30T05:38:27;11.60;76.40
14901;DHT22;7542;49.078;9.194;2022-09-30T05:39:29;11.50;76.80
14901;DHT22;7542;49.078;9.194;2022-09-30T05:40:31;11.50;77.10
14901;DHT22;7542;49.078;9.194;2022-09-30T05:41:32;11.50;77.20
14901;DHT22;7542;49.078;9.194;2022-09-30T05:42:34;11.40;77.20
14901;DHT22;7542;49.078;9.194;2022-09-30T05:43:38;11.50;77.50
14901;DHT22;7542;49.078;9.194;2022-09-30T05:44:41;11.40;77.00
14901;DHT22;7542;49.078;9.194;2022-09-30T05:45:51;11.40;77.30
14901;DHT22;7542;49.078;9.194;2022-09-30T05:46:54;11.30;77.00
14901;DHT22;7542;49.078;9.194;2022-09-30T05:47:56;11.40;76.80
14901;DHT22;7542;49.078;9.194;2022-09-30T05:48:58;11.40;76.50
14901;DHT22;7542;49.078;9.194;2022-09-30T05:49:59;11.50;76.10
14901;DHT22;7542;49.078;9.194;2022-09-30T05:51:01;14.20;77.60
14901;DHT22;7542;49.078;9.194;2022-09-30T05:52:03;11.40;76.00
14901;DHT22;7542;49.078;9.194;2022-09-30T05:53:05;11.40;75.80
14901;DHT22;7542;49.078;9.194;2022-09-30T05:54:09;11.40;75.90
14901;DHT22;7542;49.078;9.194;2022-09-30T05:55:12;11.20;76.00
14901;DHT22;7542;49.078;9.194;2022-09-30T05:56:14;11.20;76.40
14901;DHT22;7542;49.078;9.194;2022-09-30T05:57:16;11.10;76.70
14901;DHT22;7542;49.078;9.194;2022-09-30T05:58:18;11.10;76.80
14901;DHT22;7542;49.078;9.194;2022-09-30T05:59:20;11.10;76.90
14901;DHT22;7542;49.078;9.194;2022-09-30T06:00:22;12.40;77.90
14901;DHT22;7542;49.078;9.194;2022-09-30T06:01:24;14.30;79.30
14901;DHT22;7542;49.078;9.194;2022-09-30T06:02:26;11.00;77.60
14901;DHT22;7542;49.078;9.194;2022-09-30T06:03:28;10.90;77.70
14901;DHT22;7542;49.078;9.194;2022-09-30T06:04:29;11.00;77.70
14901;DHT22;7542;49.078;9.194;2022-09-30T06:05:31;10.90;77.70
14901;DHT22;7542;49.078;9.194;2022-09-30T06:06:33;12.60;78.50
14901;DHT22;7542;49.078;9.194;2022-09-30T06:07:36;11.00;77.30
14901;DHT22;7542;49.078;9.194;2022-09-30T06:08:39;11.00;77.20
14901;DHT22;7542;49.078;9.194;2022-09-30T06:09:41;11.10;77.30
14901;DHT22;7542;49.078;9.194;2022-09-30T06:10:43;11.00;77.50
14901;DHT22;7542;49.078;9.194;2022-09-30T06:11:46;11.00;77.70
14901;DHT22;7542;49.078;9.194;2022-09-30T06:12:48;11.00;77.90
14901;DHT22;7542;49.078;9.194;2022-09-30T06:13:50;13.70;79.50
14901;DHT22;7542;49.078;9.194;2022-09-30T06:14:53;11.00;77.70
14901;DHT22;7542;49.078;9.194;2022-09-30T06:16:00;11.00;77.50
14901;DHT22;7542;49.078;9.194;2022-09-30T06:17:02;11.10;77.60
14901;DHT22;7542;49.078;9.194;2022-09-30T06:18:07;14.40;79.30
14901;DHT22;7542;49.078;9.194;2022-09-30T06:19:10;11.10;77.40
14901;DHT22;7542;49.078;9.194;2022-09-30T06:20:12;14.60;79.30
14901;DHT22;7542;49.078;9.194;2022-09-30T06:21:15;13.70;78.90
14901;DHT22;7542;49.078;9.194;2022-09-30T06:22:18;11.20;77.30
14901;DHT22;7542;49.078;9.194;2022-09-30T06:23:20;11.20;77.20
14901;DHT22;7542;49.078;9.194;2022-09-30T06:24:22;13.40;78.10
14901;DHT22;7542;49.078;9.194;2022-09-30T06:25:24;12.60;77.60
14901;DHT22;7542;49.078;9.194;2022-09-30T06:26:25;11.30;76.80
14901;DHT22;7542;49.078;9.194;2022-09-30T06:27:28;11.30;76.90
14901;DHT22;7542;49.078;9.194;2022-09-30T06:28:30;11.30;76.80
14901;DHT22;7542;49.078;9.194;2022-09-30T06:29:35;11.30;76.80
14901;DHT22;7542;49.078;9.194;2022-09-30T06:30:37;11.40;77.00
14901;DHT22;7542;49.078;9.194;2022-09-30T06:31:39;11.40;77.10
14901;DHT22;7542;49.078;9.194;2022-09-30T06:32:41;11.30;77.30
14901;DHT22;7542;49.078;9.194;2022-09-30T06:33:43;11.40;77.30
14901;DHT22;7542;49.078;9.194;2022-09-30T06:34:44;11.40;77.30
14901;DHT22;7542;49.078;9.194;2022-09-30T06:35:46;11.40;77.30
14901;DHT22;7542;49.078;9.194;2022-09-30T06:36:48;11.50;77.40
14901;DHT22;7542;49.078;9.194;2022-09-30T06:37:51;11.50;77.30
14901;DHT22;7542;49.078;9.194;2022-09-30T06:38:52;14.40;78.80
14901;DHT22;7542;49.078;9.194;2022-09-30T06:39:54;11.60;77.20
14901;DHT22;7542;49.078;9.194;2022-09-30T06:40:58;13.60;78.30
14901;DHT22;7542;49.078;9.194;2022-09-30T06:42:01;11.70;77.30
14901;DHT22;7542;49.078;9.194;2022-09-30T06:43:03;11.60;77.30
14901;DHT22;7542;49.078;9.194;2022-09-30T06:44:05;14.30;79.10
14901;DHT22;7542;49.078;9.194;2022-09-30T06:45:07;11.70;77.70
14901;DHT22;7542;49.078;9.194;2022-09-30T06:46:14;11.60;77.60
14901;DHT22;7542;49.078;9.194;2022-09-30T06:47:24;11.70;77.80
14901;DHT22;7542;49.078;9.194;2022-09-30T06:48:26;11.80;77.90
14901;DHT22;7542;49.078;9.194;2022-09-30T06:49:39;11.90;78.10
14901;DHT22;7542;49.078;9.194;2022-09-30T06:50:50;11.90;78.20
14901;DHT22;7542;49.078;9.194;2022-09-30T06:52:02;15.80;80.50
14901;DHT22;7542;49.078;9.194;2022-09-30T06:53:06;11.90;78.00
14901;DHT22;7542;49.078;9.194;2022-09-30T06:54:09;15.30;79.90
14901;DHT22;7542;49.078;9.194;2022-09-30T06:55:11;12.10;78.00
14901;DHT22;7542;49.078;9.194;2022-09-30T06:56:13;12.10;78.20
14901;DHT22;7542;49.078;9.194;2022-09-30T06:57:18;12.10;78.40
14901;DHT22;7542;49.078;9.194;2022-09-30T06:58:23;12.10;77.90
14901;DHT22;7542;49.078;9.194;2022-09-30T06:59:25;12.10;77.70
14901;DHT22;7542;49.078;9.194;2022-09-30T07:00:27;12.20;78.10
14901;DHT22;7542;49.078;9.194;2022-09-30T07:01:29;12.20;78.00
14901;DHT22;7542;49.078;9.194;2022-09-30T07:02:31;14.80;79.40
14901;DHT22;7542;49.078;9.194;2022-09-30T07:03:35;12.20;77.90
14901;DHT22;7542;49.078;9.194;2022-09-30T07:04:36;12.00;77.70
14901;DHT22;7542;49.078;9.194;2022-09-30T07:05:38;12.10;77.70
14901;DHT22;7542;49.078;9.194;2022-09-30T07:06:40;12.20;77.70
14901;DHT22;7542;49.078;9.194;2022-09-30T07:07:42;15.30;79.30
14901;DHT22;7542;49.078;9.194;2022-09-30T07:08:44;12.20;77.60
14901;DHT22;7542;49.078;9.194;2022-09-30T07:09:46;15.50;79.80
14901;DHT22;7542;49.078;9.194;2022-09-30T07:10:48;12.30;78.00
14901;DHT22;7542;49.078;9.194;2022-09-30T07:11:50;12.30;77.90
14901;DHT22;7542;49.078;9.194;2022-09-30T07:12:52;12.30;77.90
14901;DHT22;7542;49.078;9.194;2022-09-30T07:13:54;12.30;77.90
14901;DHT22;7542;49.078;9.194;2022-09-30T07:14:56;12.30;77.70
14901;DHT22;7542;49.078;9.194;2022-09-30T07:15:59;12.40;77.70
14901;DHT22;7542;49.078;9.194;2022-09-30T07:17:02;12.40;77.70
14901;DHT22;7542;49.078;9.194;2022-09-30T07:18:04;12.40;77.70
14901;DHT22;7542;49.078;9.194;2022-09-30T07:19:07;12.50;77.70
14901;DHT22;7542;49.078;9.194;2022-09-30T07:20:10;12.50;77.70
14901;DHT22;7542;49.078;9.194;2022-09-30T07:21:13;14.20;78.40
14901;DHT22;7542;49.078;9.194;2022-09-30T07:22:17;15.90;79.30
14901;DHT22;7542;49.078;9.194;2022-09-30T07:23:30;12.50;77.20
14901;DHT22;7542;49.078;9.194;2022-09-30T07:24:32;12.60;77.30
14901;DHT22;7542;49.078;9.194;2022-09-30T07:25:35;12.50;77.60
14901;DHT22;7542;49.078;9.194;2022-09-30T07:26:37;13.80;78.10
14901;DHT22;7542;49.078;9.194;2022-09-30T07:27:39;15.50;79.30
14901;DHT22;7542;49.078;9.194;2022-09-30T07:28:42;12.90;77.60
14901;DHT22;7542;49.078;9.194;2022-09-30T07:29:44;15.40;78.70
14901;DHT22;7542;49.078;9.194;2022-09-30T07:31:09;12.70;77.20
14901;DHT22;7542;49.078;9.194;2022-09-30T07:32:35;12.70;77.30
14901;DHT22;7542;49.078;9.194;2022-09-30T07:33:38;16.00;79.00
14901;DHT22;7542;49.078;9.194;2022-09-30T07:34:40;12.80;77.00
14901;DHT22;7542;49.078;9.194;2022-09-30T07:35:52;12.80;77.00
14901;DHT22;7542;49.078;9.194;2022-09-30T07:36:54;12.70;76.80
14901;DHT22;7542;49.078;9.194;2022-09-30T07:37:56;16.50;79.30
14901;DHT22;7542;49.078;9.194;2022-09-30T07:38:59;12.80;77.10
14901;DHT22;7542;49.078;9.194;2022-09-30T07:40:07;14.80;78.70
14901;DHT22;7542;49.078;9.194;2022-09-30T07:41:15;12.90;77.30
14901;DHT22;7542;49.078;9.194;2022-09-30T07:42:24;16.10;79.20
14901;DHT22;7542;49.078;9.194;2022-09-30T07:43:29;12.90;77.60
14901;DHT22;7542;49.078;9.194;2022-09-30T07:44:38;12.90;77.50
14901;DHT22;7542;49.078;9.194;2022-09-30T07:45:42;12.90;77.80
14901;DHT22;7542;49.078;9.194;2022-09-30T07:46:44;12.90;77.90
14901;DHT22;7542;49.078;9.194;2022-09-30T07:47:46;13.00;77.90
14901;DHT22;7542;49.078;9.194;2022-09-30T07:48:55;13.00;77.60
14901;DHT22;7542;49.078;9.194;2022-09-30T07:50:01;13.10;77.50
14901;DHT22;7542;49.078;9.194;2022-09-30T07:51:04;13.10;77.60
14901;DHT22;7542;49.078;9.194;2022-09-30T07:52:06;13.10;77.20
14901;DHT22;7542;49.078;9.194;2022-09-30T07:53:09;13.10;77.20
14901;DHT22;7542;49.078;9.194;2022-09-30T07:54:15;16.30;79.20
14901;DHT22;7542;49.078;9.194;2022-09-30T07:55:18;13.60;77.30
14901;DHT22;7542;49.078;9.194;2022-09-30T07:56:22;13.20;77.00